sensor_id;sensor_type;location;lat;lon;timestamp;pressure;altitude;pressure_sealevel;temperature;humidity
77017;BME280;65949;53.132;17.930;2023-04-24T00:01:53;100094.24;;;13.04;76.68
77017;BME280;65949;53.132;17.930;2023-04-24T00:04:19;100091.16;;;13.03;76.78
77017;BME280;65949;53.132;17.930;2023-04-24T00:06:46;100088.46;;;13.02;76.78
77017;BME280;65949;53.132;17.930;2023-04-24T00:09:15;100088.94;;;13.01;76.86
77017;BME280;65949;53.132;17.930;2023-04-24T00:11:42;100084.80;;;13.01;76.91
77017;BME280;65949;53.132;17.930;2023-04-24T00:14:09;100080.36;;;13.01;76.97
77017;BME280;65949;53.132;17.930;2023-04-24T00:16:35;100076.15;;;12.99;76.94
77017;BME280;65949;53.132;17.930;2023-04-24T00:19:02;100080.57;;;12.95;77.44
77017;BME280;65949;53.132;17.930;2023-04-24T00:21:28;100075.94;;;12.89;77.26
77017;BME280;65949;53.132;17.930;2023-04-24T00:23:56;100075.48;;;12.84;77.45
77017;BME280;65949;53.132;17.930;2023-04-24T00:26:22;100074.95;;;12.79;77.59
77017;BME280;65949;53.132;17.930;2023-04-24T00:28:49;100075.29;;;12.77;77.56
77017;BME280;65949;53.132;17.930;2023-04-24T00:31:16;100073.59;;;12.75;77.62
77017;BME280;65949;53.132;17.930;2023-04-24T00:33:42;100069.73;;;12.75;77.50
77017;BME280;65949;53.132;17.930;2023-04-24T00:36:09;100065.77;;;12.75;77.65
77017;BME280;65949;53.132;17.930;2023-04-24T00:38:36;100061.98;;;12.75;77.80
77017;BME280;65949;53.132;17.930;2023-04-24T00:41:03;100057.70;;;12.74;77.95
77017;BME280;65949;53.132;17.930;2023-04-24T00:43:30;100049.74;;;12.71;78.07
77017;BME280;65949;53.132;17.930;2023-04-24T00:45:57;100046.33;;;12.67;78.38
77017;BME280;65949;53.132;17.930;2023-04-24T00:48:23;100052.02;;;12.64;78.28
77017;BME280;65949;53.132;17.930;2023-04-24T00:50:51;100056.95;;;12.62;77.94
77017;BME280;65949;53.132;17.930;2023-04-24T00:53:17;100058.30;;;12.64;78.05
77017;BME280;65949;53.132;17.930;2023-04-24T00:55:44;100055.95;;;12.64;78.10
77017;BME280;65949;53.132;17.930;2023-04-24T00:58:12;100053.89;;;12.66;78.09
77017;BME280;65949;53.132;17.930;2023-04-24T01:00:39;100054.23;;;12.68;78.08
77017;BME280;65949;53.132;17.930;2023-04-24T01:03:06;100050.04;;;12.69;78.11
77017;BME280;65949;53.132;17.930;2023-04-24T01:05:33;100048.23;;;12.70;77.92
77017;BME280;65949;53.132;17.930;2023-04-24T01:08:01;100045.58;;;12.69;78.09
77017;BME280;65949;53.132;17.930;2023-04-24T01:10:29;100047.30;;;12.70;78.12
77017;BME280;65949;53.132;17.930;2023-04-24T01:12:58;100046.11;;;12.69;78.25
77017;BME280;65949;53.132;17.930;2023-04-24T01:15:25;100046.16;;;12.69;78.26
77017;BME280;65949;53.132;17.930;2023-04-24T01:17:52;100041.41;;;12.69;78.26
77017;BME280;65949;53.132;17.930;2023-04-24T01:20:21;100042.19;;;12.68;78.12
77017;BME280;65949;53.132;17.930;2023-04-24T01:22:48;100036.33;;;12.66;78.29
77017;BME280;65949;53.132;17.930;2023-04-24T01:25:15;100031.08;;;12.62;78.31
77017;BME280;65949;53.132;17.930;2023-04-24T01:27:42;100027.13;;;12.56;78.45
77017;BME280;65949;53.132;17.930;2023-04-24T01:30:09;100030.69;;;12.51;78.49
77017;BME280;65949;53.132;17.930;2023-04-24T01:32:36;100030.82;;;12.48;78.60
77017;BME280;65949;53.132;17.930;2023-04-24T01:35:05;100031.40;;;12.48;78.52
77017;BME280;65949;53.132;17.930;2023-04-24T01:37:31;100031.77;;;12.48;78.59
77017;BME280;65949;53.132;17.930;2023-04-24T01:39:59;100031.92;;;12.48;78.64
77017;BME280;65949;53.132;17.930;2023-04-24T01:42:26;100028.20;;;12.48;78.57
77017;BME280;65949;53.132;17.930;2023-04-24T01:44:53;100026.39;;;12.49;78.65
77017;BME280;65949;53.132;17.930;2023-04-24T01:47:20;100022.98;;;12.50;78.68
77017;BME280;65949;53.132;17.930;2023-04-24T01:49:47;100021.11;;;12.47;78.85
77017;BME280;65949;53.132;17.930;2023-04-24T01:52:14;100025.27;;;12.44;78.92
77017;BME280;65949;53.132;17.930;2023-04-24T01:54:41;100026.77;;;12.41;78.94
77017;BME280;65949;53.132;17.930;2023-04-24T01:57:08;100025.55;;;12.38;79.21
77017;BME280;65949;53.132;17.930;2023-04-24T01:59:34;100023.86;;;12.36;78.85
77017;BME280;65949;53.132;17.930;2023-04-24T02:02:03;100024.80;;;12.36;79.15
77017;BME280;65949;53.132;17.930;2023-04-24T02:04:29;100025.41;;;12.36;79.12
77017;BME280;65949;53.132;17.930;2023-04-24T02:06:57;100022.70;;;12.37;79.02
77017;BME280;65949;53.132;17.930;2023-04-24T02:09:25;100020.71;;;12.37;78.89
77017;BME280;65949;53.132;17.930;2023-04-24T02:11:51;100021.54;;;12.39;79.10
77017;BME280;65949;53.132;17.930;2023-04-24T02:14:18;100019.27;;;12.39;79.05
77017;BME280;65949;53.132;17.930;2023-04-24T02:16:44;100020.77;;;12.40;79.20
77017;BME280;65949;53.132;17.930;2023-04-24T02:19:12;100011.88;;;12.42;79.20
77017;BME280;65949;53.132;17.930;2023-04-24T02:21:38;100002.66;;;12.42;79.39
77017;BME280;65949;53.132;17.930;2023-04-24T02:24:05;99999.69;;;12.42;79.40
77017;BME280;65949;53.132;17.930;2023-04-24T02:26:32;99997.54;;;12.43;79.49
77017;BME280;65949;53.132;17.930;2023-04-24T02:28:59;100000.58;;;12.42;79.40
77017;BME280;65949;53.132;17.930;2023-04-24T02:31:26;99999.11;;;12.42;79.42
77017;BME280;65949;53.132;17.930;2023-04-24T02:33:53;99999.53;;;12.42;79.47
77017;BME280;65949;53.132;17.930;2023-04-24T02:36:20;100000.83;;;12.43;79.50
77017;BME280;65949;53.132;17.930;2023-04-24T02:38:48;99996.96;;;12.43;79.51
77017;BME280;65949;53.132;17.930;2023-04-24T02:41:15;99996.09;;;12.41;79.58
77017;BME280;65949;53.132;17.930;2023-04-24T02:43:42;99991.98;;;12.40;79.41
77017;BME280;65949;53.132;17.930;2023-04-24T02:46:09;99985.94;;;12.39;79.57
77017;BME280;65949;53.132;17.930;2023-04-24T02:48:36;99980.66;;;12.38;79.70
77017;BME280;65949;53.132;17.930;2023-04-24T02:51:03;99979.90;;;12.36;79.60
77017;BME280;65949;53.132;17.930;2023-04-24T02:53:30;99976.70;;;12.37;79.54
77017;BME280;65949;53.132;17.930;2023-04-24T02:55:57;99978.78;;;12.37;79.76
77017;BME280;65949;53.132;17.930;2023-04-24T02:58:24;99982.86;;;12.37;79.61
77017;BME280;65949;53.132;17.930;2023-04-24T03:00:54;99985.79;;;12.39;79.65
77017;BME280;65949;53.132;17.930;2023-04-24T03:03:24;99988.70;;;12.40;79.60
77017;BME280;65949;53.132;17.930;2023-04-24T03:05:51;99991.23;;;12.41;79.59
77017;BME280;65949;53.132;17.930;2023-04-24T03:08:18;99988.88;;;12.42;79.70
77017;BME280;65949;53.132;17.930;2023-04-24T03:10:45;99994.16;;;12.45;79.50
77017;BME280;65949;53.132;17.930;2023-04-24T03:13:12;99993.46;;;12.47;79.80
77017;BME280;65949;53.132;17.930;2023-04-24T03:15:38;99993.35;;;12.47;79.76
77017;BME280;65949;53.132;17.930;2023-04-24T03:18:05;99996.96;;;12.48;79.69
77017;BME280;65949;53.132;17.930;2023-04-24T03:20:31;99999.71;;;12.49;79.63
77017;BME280;65949;53.132;17.930;2023-04-24T03:22:58;100000.85;;;12.50;79.75
77017;BME280;65949;53.132;17.930;2023-04-24T03:25:25;99995.66;;;12.51;79.75
77017;BME280;65949;53.132;17.930;2023-04-24T03:27:52;100000.94;;;12.52;79.78
77017;BME280;65949;53.132;17.930;2023-04-24T03:30:29;100000.15;;;12.52;79.75
77017;BME280;65949;53.132;17.930;2023-04-24T03:32:59;100001.92;;;12.52;79.65
77017;BME280;65949;53.132;17.930;2023-04-24T03:35:28;100002.05;;;12.50;79.87
77017;BME280;65949;53.132;17.930;2023-04-24T03:37:55;100002.73;;;12.49;79.88
77017;BME280;65949;53.132;17.930;2023-04-24T03:40:48;100005.06;;;12.47;79.89
77017;BME280;65949;53.132;17.930;2023-04-24T03:43:25;100005.91;;;12.46;80.03
77017;BME280;65949;53.132;17.930;2023-04-24T03:45:53;99994.84;;;12.45;79.98
77017;BME280;65949;53.132;17.930;2023-04-24T03:48:20;99992.13;;;12.46;79.93
77017;BME280;65949;53.132;17.930;2023-04-24T03:50:47;99986.74;;;12.46;79.94
77017;BME280;65949;53.132;17.930;2023-04-24T03:53:14;99990.76;;;12.47;79.98
77017;BME280;65949;53.132;17.930;2023-04-24T03:55:41;99991.48;;;12.47;80.21
77017;BME280;65949;53.132;17.930;2023-04-24T03:58:09;99987.66;;;12.47;80.36
77017;BME280;65949;53.132;17.930;2023-04-24T04:00:35;99982.55;;;12.46;80.16
77017;BME280;65949;53.132;17.930;2023-04-24T04:03:42;99979.23;;;12.44;80.33
77017;BME280;65949;53.132;17.930;2023-04-24T04:06:09;99970.48;;;12.42;80.45
77017;BME280;65949;53.132;17.930;2023-04-24T04:08:38;99971.23;;;12.41;80.50
77017;BME280;65949;53.132;17.930;2023-04-24T04:11:04;99974.80;;;12.42;80.46
77017;BME280;65949;53.132;17.930;2023-04-24T04:13:31;99971.30;;;12.44;80.58
77017;BME280;65949;53.132;17.930;2023-04-24T04:15:58;99973.58;;;12.45;80.45
77017;BME280;65949;53.132;17.930;2023-04-24T04:18:25;99971.77;;;12.46;80.43
77017;BME280;65949;53.132;17.930;2023-04-24T04:20:52;99970.83;;;12.47;80.37
77017;BME280;65949;53.132;17.930;2023-04-24T04:23:18;99963.77;;;12.48;80.23
77017;BME280;65949;53.132;17.930;2023-04-24T04:26:05;99958.91;;;12.51;80.17
77017;BME280;65949;53.132;17.930;2023-04-24T04:28:53;99953.23;;;12.53;80.49
77017;BME280;65949;53.132;17.930;2023-04-24T04:31:20;99951.09;;;12.54;80.76
77017;BME280;65949;53.132;17.930;2023-04-24T04:33:47;99954.52;;;12.51;80.82
77017;BME280;65949;53.132;17.930;2023-04-24T04:36:14;99960.27;;;12.51;80.87
77017;BME280;65949;53.132;17.930;2023-04-24T04:38:44;99960.81;;;12.54;80.91
77017;BME280;65949;53.132;17.930;2023-04-24T04:41:31;99959.00;;;12.57;80.67
77017;BME280;65949;53.132;17.930;2023-04-24T04:43:58;99959.14;;;12.62;80.92
77017;BME280;65949;53.132;17.930;2023-04-24T04:46:25;99958.80;;;12.65;80.98
77017;BME280;65949;53.132;17.930;2023-04-24T04:49:06;99958.23;;;12.68;81.18
77017;BME280;65949;53.132;17.930;2023-04-24T04:51:35;99948.36;;;12.70;81.00
77017;BME280;65949;53.132;17.930;2023-04-24T04:54:02;99946.05;;;12.71;80.92
77017;BME280;65949;53.132;17.930;2023-04-24T04:56:29;99942.89;;;12.72;80.91
77017;BME280;65949;53.132;17.930;2023-04-24T04:58:56;99940.29;;;12.78;81.00
77017;BME280;65949;53.132;17.930;2023-04-24T05:01:23;99938.94;;;12.85;81.07
77017;BME280;65949;53.132;17.930;2023-04-24T05:03:50;99936.96;;;12.94;81.02
77017;BME280;65949;53.132;17.930;2023-04-24T05:06:17;99936.45;;;13.03;81.02
77017;BME280;65949;53.132;17.930;2023-04-24T05:08:44;99933.76;;;13.11;80.55
77017;BME280;65949;53.132;17.930;2023-04-24T05:11:31;99933.70;;;13.15;80.82
77017;BME280;65949;53.132;17.930;2023-04-24T05:13:58;99926.48;;;13.16;80.72
77017;BME280;65949;53.132;17.930;2023-04-24T05:16:32;99931.35;;;13.21;80.99
77017;BME280;65949;53.132;17.930;2023-04-24T05:18:59;99930.98;;;13.24;81.03
77017;BME280;65949;53.132;17.930;2023-04-24T05:21:30;99940.19;;;13.28;81.15
77017;BME280;65949;53.132;17.930;2023-04-24T05:23:57;99933.82;;;13.34;81.15
77017;BME280;65949;53.132;17.930;2023-04-24T05:26:35;99929.50;;;13.41;80.93
77017;BME280;65949;53.132;17.930;2023-04-24T05:29:02;99932.66;;;13.52;80.79
77017;BME280;65949;53.132;17.930;2023-04-24T05:31:29;99929.70;;;13.82;80.32
77017;BME280;65949;53.132;17.930;2023-04-24T05:33:56;99930.16;;;14.50;79.12
77017;BME280;65949;53.132;17.930;2023-04-24T05:36:23;99930.58;;;15.36;77.72
77017;BME280;65949;53.132;17.930;2023-04-24T05:38:49;99931.17;;;16.05;75.72
77017;BME280;65949;53.132;17.930;2023-04-24T05:41:16;99930.73;;;16.38;74.96
77017;BME280;65949;53.132;17.930;2023-04-24T05:43:43;99933.80;;;16.22;75.37
77017;BME280;65949;53.132;17.930;2023-04-24T05:46:11;99936.08;;;16.15;75.08
77017;BME280;65949;53.132;17.930;2023-04-24T05:48:39;99934.39;;;15.90;73.48
77017;BME280;65949;53.132;17.930;2023-04-24T05:51:05;99931.83;;;15.62;73.67
77017;BME280;65949;53.132;17.930;2023-04-24T05:53:32;99925.92;;;15.40;74.08
77017;BME280;65949;53.132;17.930;2023-04-24T05:55:59;99920.60;;;15.23;74.36
77017;BME280;65949;53.132;17.930;2023-04-24T05:58:26;99924.54;;;15.06;73.93
77017;BME280;65949;53.132;17.930;2023-04-24T06:00:54;99928.83;;;14.93;74.47
77017;BME280;65949;53.132;17.930;2023-04-24T06:03:21;99937.23;;;14.89;74.86
77017;BME280;65949;53.132;17.930;2023-04-24T06:05:50;99940.86;;;14.88;74.93
77017;BME280;65949;53.132;17.930;2023-04-24T06:08:17;99939.96;;;14.88;74.50
77017;BME280;65949;53.132;17.930;2023-04-24T06:10:44;99935.59;;;14.89;74.63
77017;BME280;65949;53.132;17.930;2023-04-24T06:13:11;99935.77;;;14.93;74.53
77017;BME280;65949;53.132;17.930;2023-04-24T06:15:40;99929.23;;;14.96;74.32
77017;BME280;65949;53.132;17.930;2023-04-24T06:18:10;99918.73;;;15.05;74.35
77017;BME280;65949;53.132;17.930;2023-04-24T06:20:37;99913.88;;;15.13;74.12
77017;BME280;65949;53.132;17.930;2023-04-24T06:23:03;99911.69;;;15.18;74.14
77017;BME280;65949;53.132;17.930;2023-04-24T06:25:30;99903.40;;;15.28;73.28
77017;BME280;65949;53.132;17.930;2023-04-24T06:27:57;99906.90;;;15.45;73.09
77017;BME280;65949;53.132;17.930;2023-04-24T06:30:23;99910.23;;;15.66;72.83
77017;BME280;65949;53.132;17.930;2023-04-24T06:32:50;99902.05;;;15.75;72.68
77017;BME280;65949;53.132;17.930;2023-04-24T06:35:17;99901.02;;;15.79;72.43
77017;BME280;65949;53.132;17.930;2023-04-24T06:37:44;99898.02;;;15.79;72.15
77017;BME280;65949;53.132;17.930;2023-04-24T06:40:11;99895.63;;;15.76;71.75
77017;BME280;65949;53.132;17.930;2023-04-24T06:42:37;99890.46;;;15.67;72.02
77017;BME280;65949;53.132;17.930;2023-04-24T06:45:07;99897.77;;;15.61;72.23
77017;BME280;65949;53.132;17.930;2023-04-24T06:47:33;99892.23;;;15.55;71.88
77017;BME280;65949;53.132;17.930;2023-04-24T06:50:00;99894.64;;;15.52;72.01
77017;BME280;65949;53.132;17.930;2023-04-24T06:52:27;99893.95;;;15.52;71.83
77017;BME280;65949;53.132;17.930;2023-04-24T06:55:00;99890.71;;;15.60;71.97
77017;BME280;65949;53.132;17.930;2023-04-24T06:57:27;99888.28;;;15.71;71.73
77017;BME280;65949;53.132;17.930;2023-04-24T06:59:54;99892.17;;;15.85;71.34
77017;BME280;65949;53.132;17.930;2023-04-24T07:02:20;99892.45;;;15.96;71.00
77017;BME280;65949;53.132;17.930;2023-04-24T07:04:47;99890.36;;;16.04;71.05
77017;BME280;65949;53.132;17.930;2023-04-24T07:07:14;99892.16;;;16.17;70.56
77017;BME280;65949;53.132;17.930;2023-04-24T07:09:41;99894.15;;;16.28;69.60
77017;BME280;65949;53.132;17.930;2023-04-24T07:12:08;99892.95;;;16.36;69.51
77017;BME280;65949;53.132;17.930;2023-04-24T07:14:37;99890.92;;;16.44;69.21
77017;BME280;65949;53.132;17.930;2023-04-24T07:17:04;99888.87;;;16.50;68.31
77017;BME280;65949;53.132;17.930;2023-04-24T07:19:33;99889.10;;;16.52;67.21
77017;BME280;65949;53.132;17.930;2023-04-24T07:22:01;99883.65;;;16.51;67.24
77017;BME280;65949;53.132;17.930;2023-04-24T07:24:30;99883.94;;;16.50;67.38
77017;BME280;65949;53.132;17.930;2023-04-24T07:26:59;99886.80;;;16.49;66.98
77017;BME280;65949;53.132;17.930;2023-04-24T07:29:27;99882.73;;;16.49;66.61
77017;BME280;65949;53.132;17.930;2023-04-24T07:31:53;99881.83;;;16.54;66.65
77017;BME280;65949;53.132;17.930;2023-04-24T07:34:20;99880.56;;;16.61;66.58
77017;BME280;65949;53.132;17.930;2023-04-24T07:36:47;99879.69;;;16.67;66.30
77017;BME280;65949;53.132;17.930;2023-04-24T07:39:13;99878.14;;;16.73;66.04
77017;BME280;65949;53.132;17.930;2023-04-24T07:41:40;99876.05;;;16.80;65.54
77017;BME280;65949;53.132;17.930;2023-04-24T07:44:06;99875.40;;;16.89;64.84
77017;BME280;65949;53.132;17.930;2023-04-24T07:46:33;99877.73;;;17.02;64.34
77017;BME280;65949;53.132;17.930;2023-04-24T07:49:00;99880.48;;;17.17;63.10
77017;BME280;65949;53.132;17.930;2023-04-24T07:51:27;99876.98;;;17.27;62.28
77017;BME280;65949;53.132;17.930;2023-04-24T07:53:54;99877.75;;;17.36;62.10
77017;BME280;65949;53.132;17.930;2023-04-24T07:56:21;99879.13;;;17.48;61.99
77017;BME280;65949;53.132;17.930;2023-04-24T07:58:48;99880.18;;;17.57;61.50
77017;BME280;65949;53.132;17.930;2023-04-24T08:01:15;99882.14;;;17.63;61.48
77017;BME280;65949;53.132;17.930;2023-04-24T08:03:42;99874.08;;;17.71;61.05
77017;BME280;65949;53.132;17.930;2023-04-24T08:06:08;99877.00;;;17.81;60.10
77017;BME280;65949;53.132;17.930;2023-04-24T08:08:35;99876.77;;;17.84;59.83
77017;BME280;65949;53.132;17.930;2023-04-24T08:11:01;99880.73;;;17.90;59.60
77017;BME280;65949;53.132;17.930;2023-04-24T08:13:28;99875.12;;;17.97;58.93
77017;BME280;65949;53.132;17.930;2023-04-24T08:15:56;99880.73;;;18.11;59.01
77017;BME280;65949;53.132;17.930;2023-04-24T08:18:23;99880.34;;;18.29;58.12
77017;BME280;65949;53.132;17.930;2023-04-24T08:20:49;99875.56;;;18.43;57.75
77017;BME280;65949;53.132;17.930;2023-04-24T08:23:16;99874.55;;;18.59;58.02
77017;BME280;65949;53.132;17.930;2023-04-24T08:25:42;99873.77;;;18.80;58.18
77017;BME280;65949;53.132;17.930;2023-04-24T08:28:09;99868.84;;;19.00;57.53
77017;BME280;65949;53.132;17.930;2023-04-24T08:30:37;99864.75;;;19.11;55.58
77017;BME280;65949;53.132;17.930;2023-04-24T08:33:04;99867.02;;;19.13;55.52
77017;BME280;65949;53.132;17.930;2023-04-24T08:35:31;99866.38;;;19.08;55.91
77017;BME280;65949;53.132;17.930;2023-04-24T08:37:58;99863.56;;;19.03;55.12
77017;BME280;65949;53.132;17.930;2023-04-24T08:40:27;99863.52;;;18.92;55.41
77017;BME280;65949;53.132;17.930;2023-04-24T08:42:58;99862.45;;;18.84;54.67
77017;BME280;65949;53.132;17.930;2023-04-24T08:45:26;99861.94;;;18.78;54.90
77017;BME280;65949;53.132;17.930;2023-04-24T08:47:53;99862.67;;;18.73;54.78
77017;BME280;65949;53.132;17.930;2023-04-24T08:50:21;99858.30;;;18.68;54.67
77017;BME280;65949;53.132;17.930;2023-04-24T08:52:52;99861.23;;;18.73;55.08
77017;BME280;65949;53.132;17.930;2023-04-24T08:55:20;99858.85;;;18.80;53.93
77017;BME280;65949;53.132;17.930;2023-04-24T08:57:52;99857.70;;;18.88;54.23
77017;BME280;65949;53.132;17.930;2023-04-24T09:00:20;99852.08;;;18.96;54.27
77017;BME280;65949;53.132;17.930;2023-04-24T09:02:52;99854.14;;;19.03;53.81
77017;BME280;65949;53.132;17.930;2023-04-24T09:05:21;99852.77;;;19.09;53.66
77017;BME280;65949;53.132;17.930;2023-04-24T09:07:51;99855.52;;;19.13;54.14
77017;BME280;65949;53.132;17.930;2023-04-24T09:10:21;99854.77;;;19.20;53.85
77017;BME280;65949;53.132;17.930;2023-04-24T09:12:50;99857.69;;;19.25;52.88
77017;BME280;65949;53.132;17.930;2023-04-24T09:15:18;99866.59;;;19.24;52.91
77017;BME280;65949;53.132;17.930;2023-04-24T09:17:47;99865.06;;;19.22;53.14
77017;BME280;65949;53.132;17.930;2023-04-24T09:20:13;99866.42;;;19.23;53.60
77017;BME280;65949;53.132;17.930;2023-04-24T09:22:42;99864.39;;;19.27;53.28
77017;BME280;65949;53.132;17.930;2023-04-24T09:25:09;99862.98;;;19.27;53.21
77017;BME280;65949;53.132;17.930;2023-04-24T09:27:43;99860.27;;;19.28;52.71
77017;BME280;65949;53.132;17.930;2023-04-24T09:30:12;99864.29;;;19.28;52.55
77017;BME280;65949;53.132;17.930;2023-04-24T09:32:39;99860.59;;;19.25;52.31
77017;BME280;65949;53.132;17.930;2023-04-24T09:35:10;99858.16;;;19.28;53.19
77017;BME280;65949;53.132;17.930;2023-04-24T09:37:40;99862.62;;;19.32;52.75
77017;BME280;65949;53.132;17.930;2023-04-24T09:40:17;99854.23;;;19.34;53.14
77017;BME280;65949;53.132;17.930;2023-04-24T09:42:46;99850.83;;;19.46;52.79
77017;BME280;65949;53.132;17.930;2023-04-24T09:45:17;99852.05;;;19.55;52.79
77017;BME280;65949;53.132;17.930;2023-04-24T09:47:44;99849.41;;;19.59;52.21
77017;BME280;65949;53.132;17.930;2023-04-24T09:50:21;99845.98;;;19.55;52.74
77017;BME280;65949;53.132;17.930;2023-04-24T09:52:58;99841.59;;;19.54;52.23
77017;BME280;65949;53.132;17.930;2023-04-24T09:55:25;99842.70;;;19.51;52.87
77017;BME280;65949;53.132;17.930;2023-04-24T09:57:56;99848.16;;;19.52;52.61
77017;BME280;65949;53.132;17.930;2023-04-24T10:00:27;99843.36;;;19.56;52.54
77017;BME280;65949;53.132;17.930;2023-04-24T10:03:01;99841.23;;;19.55;52.64
77017;BME280;65949;53.132;17.930;2023-04-24T10:05:30;99839.33;;;19.60;52.79
77017;BME280;65949;53.132;17.930;2023-04-24T10:08:18;99832.42;;;19.69;52.89
77017;BME280;65949;53.132;17.930;2023-04-24T10:10:45;99829.19;;;19.79;52.12
77017;BME280;65949;53.132;17.930;2023-04-24T10:13:14;99826.53;;;19.86;52.19
77017;BME280;65949;53.132;17.930;2023-04-24T10:15:42;99821.23;;;19.95;52.22
77017;BME280;65949;53.132;17.930;2023-04-24T10:18:09;99821.54;;;20.13;51.69
77017;BME280;65949;53.132;17.930;2023-04-24T10:20:37;99811.56;;;20.39;51.22
77017;BME280;65949;53.132;17.930;2023-04-24T10:23:05;99809.30;;;20.60;50.33
77017;BME280;65949;53.132;17.930;2023-04-24T10:25:34;99817.75;;;20.67;50.15
77017;BME280;65949;53.132;17.930;2023-04-24T10:28:02;99818.70;;;20.69;49.99
77017;BME280;65949;53.132;17.930;2023-04-24T10:30:32;99814.45;;;20.71;49.83
77017;BME280;65949;53.132;17.930;2023-04-24T10:33:04;99816.49;;;20.74;50.10
77017;BME280;65949;53.132;17.930;2023-04-24T10:35:34;99822.34;;;20.78;49.48
77017;BME280;65949;53.132;17.930;2023-04-24T10:38:08;99824.67;;;20.80;49.60
77017;BME280;65949;53.132;17.930;2023-04-24T10:40:36;99825.73;;;20.92;49.78
77017;BME280;65949;53.132;17.930;2023-04-24T10:43:07;99820.98;;;21.06;49.72
77017;BME280;65949;53.132;17.930;2023-04-24T10:45:38;99822.67;;;21.16;49.01
77017;BME280;65949;53.132;17.930;2023-04-24T10:48:07;99822.41;;;21.29;49.46
77017;BME280;65949;53.132;17.930;2023-04-24T10:50:44;99819.48;;;21.44;49.10
77017;BME280;65949;53.132;17.930;2023-04-24T10:53:14;99825.94;;;21.57;48.42
77017;BME280;65949;53.132;17.930;2023-04-24T10:58:14;99823.52;;;21.51;48.02
77017;BME280;65949;53.132;17.930;2023-04-24T11:00:43;99822.80;;;21.52;48.44
77017;BME280;65949;53.132;17.930;2023-04-24T11:03:37;99831.60;;;21.66;48.39
77017;BME280;65949;53.132;17.930;2023-04-24T11:06:08;99827.89;;;21.82;48.43
77017;BME280;65949;53.132;17.930;2023-04-24T11:11:13;99823.79;;;21.99;47.96
77017;BME280;65949;53.132;17.930;2023-04-24T11:19:00;99819.98;;;22.35;47.91
77017;BME280;65949;53.132;17.930;2023-04-24T11:21:40;99815.57;;;22.52;47.33
77017;BME280;65949;53.132;17.930;2023-04-24T11:29:58;99831.05;;;22.64;46.34
77017;BME280;65949;53.132;17.930;2023-04-24T11:35:21;99825.66;;;22.38;46.80
77017;BME280;65949;53.132;17.930;2023-04-24T11:37:54;99833.41;;;22.38;46.96
77017;BME280;65949;53.132;17.930;2023-04-24T11:40:22;99834.58;;;22.40;46.58
77017;BME280;65949;53.132;17.930;2023-04-24T11:42:51;99831.39;;;22.36;46.91
77017;BME280;65949;53.132;17.930;2023-04-24T11:45:22;99831.48;;;22.33;46.58
77017;BME280;65949;53.132;17.930;2023-04-24T11:47:49;99834.28;;;22.37;46.32
77017;BME280;65949;53.132;17.930;2023-04-24T11:50:18;99832.11;;;22.42;45.39
77017;BME280;65949;53.132;17.930;2023-04-24T11:52:47;99831.90;;;22.35;46.33
77017;BME280;65949;53.132;17.930;2023-04-24T11:57:49;99828.96;;;22.13;46.18
77017;BME280;65949;53.132;17.930;2023-04-24T12:02:44;99823.27;;;22.03;47.34
77017;BME280;65949;53.132;17.930;2023-04-24T12:05:22;99823.16;;;21.98;47.27
77017;BME280;65949;53.132;17.930;2023-04-24T12:07:49;99821.74;;;21.96;47.75
77017;BME280;65949;53.132;17.930;2023-04-24T12:10:20;99825.79;;;22.11;47.85
77017;BME280;65949;53.132;17.930;2023-04-24T12:12:47;99816.66;;;22.24;48.09
77017;BME280;65949;53.132;17.930;2023-04-24T12:15:18;99822.66;;;22.32;47.50
77017;BME280;65949;53.132;17.930;2023-04-24T12:17:45;99815.80;;;22.30;47.00
77017;BME280;65949;53.132;17.930;2023-04-24T12:20:13;99815.05;;;22.20;46.26
77017;BME280;65949;53.132;17.930;2023-04-24T12:22:45;99815.42;;;21.91;46.76
77017;BME280;65949;53.132;17.930;2023-04-24T12:25:14;99824.52;;;21.67;47.48
77017;BME280;65949;53.132;17.930;2023-04-24T12:27:41;99822.48;;;21.49;48.24
77017;BME280;65949;53.132;17.930;2023-04-24T12:30:17;99821.05;;;21.36;48.36
77017;BME280;65949;53.132;17.930;2023-04-24T12:32:48;99814.70;;;21.37;48.61
77017;BME280;65949;53.132;17.930;2023-04-24T12:35:23;99807.36;;;21.47;48.44
77017;BME280;65949;53.132;17.930;2023-04-24T12:37:50;99808.41;;;21.43;48.78
77017;BME280;65949;53.132;17.930;2023-04-24T12:40:17;99810.60;;;21.43;48.81
77017;BME280;65949;53.132;17.930;2023-04-24T12:42:49;99805.88;;;21.41;49.27
77017;BME280;65949;53.132;17.930;2023-04-24T12:45:17;99803.09;;;21.39;49.50
77017;BME280;65949;53.132;17.930;2023-04-24T12:47:45;99800.84;;;21.43;49.37
77017;BME280;65949;53.132;17.930;2023-04-24T12:50:14;99800.05;;;21.52;49.14
77017;BME280;65949;53.132;17.930;2023-04-24T12:52:42;99798.72;;;21.69;49.35
77017;BME280;65949;53.132;17.930;2023-04-24T12:55:09;99795.87;;;21.87;48.41
77017;BME280;65949;53.132;17.930;2023-04-24T12:57:39;99794.86;;;21.90;48.06
77017;BME280;65949;53.132;17.930;2023-04-24T13:00:08;99795.38;;;21.78;48.24
77017;BME280;65949;53.132;17.930;2023-04-24T13:02:35;99793.90;;;21.64;48.79
77017;BME280;65949;53.132;17.930;2023-04-24T13:05:02;99792.53;;;21.67;48.43
77017;BME280;65949;53.132;17.930;2023-04-24T13:07:29;99790.38;;;21.75;48.36
77017;BME280;65949;53.132;17.930;2023-04-24T13:09:56;99790.73;;;21.74;47.71
77017;BME280;65949;53.132;17.930;2023-04-24T13:12:24;99785.62;;;21.73;47.95
77017;BME280;65949;53.132;17.930;2023-04-24T13:14:52;99787.55;;;21.65;48.08
77017;BME280;65949;53.132;17.930;2023-04-24T13:17:19;99782.14;;;21.53;48.31
77017;BME280;65949;53.132;17.930;2023-04-24T13:19:45;99785.13;;;21.52;48.62